Hachihouyou — HACHIHO — position and weather

sailwx.info

Track history (hours):
 
Tides and Currents Weather Stations Pressure Air Temp Water Temp Dewpoint Dewpoint Depression Visibility Wind Speed Wind Dir Waves Ship Positions

Hachihouyou

Last reported at 2018-May-01 23:02 UTC. Time now 2018-Jun-18 09:35 UTC.
Position N 34°49' E 136°56'.
Warning: this ship's position is 47 days out of date.

Length 60 m.

Type: Dredging. MMSI: 431002186.

Date/timePositionNaut miles runAvg speedWind from/ knotsBaromVisibWave heightAir tempDewpointWater temp
2018-May-01 23:02N 34°49' E 136°56'0 4.5
2018-May-01 22:59N 34°49' E 136°56'1 0.1
2018-May-01 14:54N 34°50' E 136°56'0 0.0
2018-May-01 05:42N 34°50' E 136°56'0 0.0
2018-May-01 05:30N 34°50' E 136°56'0 0.0
2018-May-01 04:00N 34°50' E 136°56'0 0.0
2018-May-01 02:42N 34°50' E 136°56'0 0.2
2018-May-01 02:24N 34°50' E 136°56'0 0.0
2018-May-01 01:42N 34°50' E 136°56'0 0.2
2018-May-01 01:30N 34°50' E 136°56'0 0.0
2018-May-01 00:36N 34°50' E 136°56'0 0.2
2018-May-01 00:18N 34°50' E 136°56'0 0.2
2018-May-01 00:00N 34°50' E 136°56'0 0.1
2018-Apr-30 23:18N 34°50' E 136°56'0 0.1
2018-Apr-30 22:54N 34°50' E 136°56'0 0.0
2018-Apr-30 10:30N 34°50' E 136°56'0 0.0
2018-Apr-30 10:00N 34°50' E 136°56'0 0.0
2018-Apr-30 09:12N 34°50' E 136°56'0 0.0
2018-Apr-30 05:52N 34°50' E 136°56'0 0.0
2018-Apr-30 03:52N 34°50' E 136°56'0 0.0
2018-Apr-28 02:25N 34°50' E 136°56'0 0.0
2018-Apr-28 01:55N 34°50' E 136°56'0 0.0
2018-Apr-28 01:25N 34°50' E 136°56'0 0.0
2018-Apr-28 00:49N 34°50' E 136°56'0 0.0
2018-Apr-28 00:25N 34°50' E 136°56'0 0.0
2018-Apr-27 23:46N 34°50' E 136°56'0 0.0
2018-Apr-27 23:28N 34°50' E 136°56'0 0.0
2018-Apr-27 22:34N 34°50' E 136°56'0 0.0
2018-Apr-27 22:28N 34°50' E 136°56'0 0.0
2018-Apr-27 21:10N 34°50' E 136°56'0 0.0
2018-Apr-27 20:58N 34°50' E 136°56'0 0.0
2018-Apr-27 20:28N 34°50' E 136°56'0 0.0
2018-Apr-27 19:58N 34°50' E 136°56'0 0.0
2018-Apr-27 19:22N 34°50' E 136°56'0 0.0
2018-Apr-27 18:58N 34°50' E 136°56'0 0.0
2018-Apr-27 18:28N 34°50' E 136°56'0 0.0
2018-Apr-27 17:52N 34°50' E 136°56'0 0.0
2018-Apr-27 17:28N 34°50' E 136°56'0 0.0
2018-Apr-27 16:52N 34°50' E 136°56'0 0.0
2018-Apr-27 16:28N 34°50' E 136°56'0 0.0
2018-Apr-27 13:40N 34°50' E 136°56'0 0.0
2018-Apr-27 13:28N 34°50' E 136°56'0 0.0
2018-Apr-27 12:58N 34°50' E 136°56'0 0.0
2018-Apr-27 12:28N 34°50' E 136°56'0 0.0
2018-Apr-27 11:58N 34°50' E 136°56'0 0.0
2018-Apr-27 11:28N 34°50' E 136°56'0 0.0
2018-Apr-27 10:58N 34°50' E 136°56'0 0.0
2018-Apr-27 10:22N 34°50' E 136°56'0 0.0
2018-Apr-27 09:58N 34°50' E 136°56'0 0.0
2018-Apr-27 09:28N 34°50' E 136°56'0 0.0
2018-Apr-27 08:58N 34°50' E 136°56'0 0.0
2018-Apr-27 08:28N 34°50' E 136°56'0 0.0
2018-Apr-27 07:52N 34°50' E 136°56'0 0.0
2018-Apr-27 07:22N 34°50' E 136°56'0 0.0
2018-Apr-26 03:34N 34°50' E 136°56'  
2018-Apr-22 00:16N 34°49' E 136°56'0 0.0
2018-Apr-21 23:46N 34°49' E 136°56'0 0.0
2018-Apr-21 23:28N 34°49' E 136°56'  
Track history (hours):
 
Tides and Currents Weather Stations Pressure Air Temp Water Temp Dewpoint Dewpoint Depression Visibility Wind Speed Wind Dir Waves Ship Positions

Hachihouyou

Last reported at 2018-May-01 23:02 UTC. Time now 2018-Jun-18 09:35 UTC.
Position N 34°49' E 136°56'.
Warning: this ship's position is 47 days out of date.

Length 60 m.

Type: Dredging. MMSI: 431002186.

Date/timePositionNaut miles runAvg speedWind from/ knotsBaromVisibWave heightAir tempDewpointWater temp
2018-May-01 23:02N 34°49' E 136°56'0 4.5
2018-May-01 22:59N 34°49' E 136°56'1 0.1
2018-May-01 14:54N 34°50' E 136°56'0 0.0
2018-May-01 05:42N 34°50' E 136°56'0 0.0
2018-May-01 05:30N 34°50' E 136°56'0 0.0
2018-May-01 04:00N 34°50' E 136°56'0 0.0
2018-May-01 02:42N 34°50' E 136°56'0 0.2
2018-May-01 02:24N 34°50' E 136°56'0 0.0
2018-May-01 01:42N 34°50' E 136°56'0 0.2
2018-May-01 01:30N 34°50' E 136°56'0 0.0
2018-May-01 00:36N 34°50' E 136°56'0 0.2
2018-May-01 00:18N 34°50' E 136°56'0 0.2
2018-May-01 00:00N 34°50' E 136°56'0 0.1
2018-Apr-30 23:18N 34°50' E 136°56'0 0.1
2018-Apr-30 22:54N 34°50' E 136°56'0 0.0
2018-Apr-30 10:30N 34°50' E 136°56'0 0.0
2018-Apr-30 10:00N 34°50' E 136°56'0 0.0
2018-Apr-30 09:12N 34°50' E 136°56'0 0.0
2018-Apr-30 05:52N 34°50' E 136°56'0 0.0
2018-Apr-30 03:52N 34°50' E 136°56'0 0.0
2018-Apr-28 02:25N 34°50' E 136°56'0 0.0
2018-Apr-28 01:55N 34°50' E 136°56'0 0.0
2018-Apr-28 01:25N 34°50' E 136°56'0 0.0
2018-Apr-28 00:49N 34°50' E 136°56'0 0.0
2018-Apr-28 00:25N 34°50' E 136°56'0 0.0
2018-Apr-27 23:46N 34°50' E 136°56'0 0.0
2018-Apr-27 23:28N 34°50' E 136°56'0 0.0
2018-Apr-27 22:34N 34°50' E 136°56'0 0.0
2018-Apr-27 22:28N 34°50' E 136°56'0 0.0
2018-Apr-27 21:10N 34°50' E 136°56'0 0.0
2018-Apr-27 20:58N 34°50' E 136°56'0 0.0
2018-Apr-27 20:28N 34°50' E 136°56'0 0.0
2018-Apr-27 19:58N 34°50' E 136°56'0 0.0
2018-Apr-27 19:22N 34°50' E 136°56'0 0.0
2018-Apr-27 18:58N 34°50' E 136°56'0 0.0
2018-Apr-27 18:28N 34°50' E 136°56'0 0.0
2018-Apr-27 17:52N 34°50' E 136°56'0 0.0
2018-Apr-27 17:28N 34°50' E 136°56'0 0.0
2018-Apr-27 16:52N 34°50' E 136°56'0 0.0
2018-Apr-27 16:28N 34°50' E 136°56'0 0.0
2018-Apr-27 13:40N 34°50' E 136°56'0 0.0
2018-Apr-27 13:28N 34°50' E 136°56'0 0.0
2018-Apr-27 12:58N 34°50' E 136°56'0 0.0
2018-Apr-27 12:28N 34°50' E 136°56'0 0.0
2018-Apr-27 11:58N 34°50' E 136°56'0 0.0
2018-Apr-27 11:28N 34°50' E 136°56'0 0.0
2018-Apr-27 10:58N 34°50' E 136°56'0 0.0
2018-Apr-27 10:22N 34°50' E 136°56'0 0.0
2018-Apr-27 09:58N 34°50' E 136°56'0 0.0
2018-Apr-27 09:28N 34°50' E 136°56'0 0.0
2018-Apr-27 08:58N 34°50' E 136°56'0 0.0
2018-Apr-27 08:28N 34°50' E 136°56'0 0.0
2018-Apr-27 07:52N 34°50' E 136°56'0 0.0
2018-Apr-27 07:22N 34°50' E 136°56'0 0.0
2018-Apr-26 03:34N 34°50' E 136°56'  
2018-Apr-22 00:16N 34°49' E 136°56'0 0.0
2018-Apr-21 23:46N 34°49' E 136°56'0 0.0
2018-Apr-21 23:28N 34°49' E 136°56'  

Dump ship's entire track history